sensor_id;sensor_type;location;lat;lon;timestamp;P1;durP1;ratioP1;P2;durP2;ratioP2
66946;SDS011;53853;51.982;5.928;2023-04-24T00:01:09;5.20;;;4.63;;
66946;SDS011;53853;51.982;5.928;2023-04-24T00:03:40;6.60;;;5.82;;
66946;SDS011;53853;51.982;5.928;2023-04-24T00:06:10;4.95;;;4.45;;
66946;SDS011;53853;51.982;5.928;2023-04-24T00:08:45;7.00;;;6.30;;
66946;SDS011;53853;51.982;5.928;2023-04-24T00:11:15;7.10;;;6.50;;
66946;SDS011;53853;51.982;5.928;2023-04-24T00:13:45;8.15;;;6.40;;
66946;SDS011;53853;51.982;5.928;2023-04-24T00:16:15;7.50;;;6.80;;
66946;SDS011;53853;51.982;5.928;2023-04-24T00:18:45;6.13;;;5.57;;
66946;SDS011;53853;51.982;5.928;2023-04-24T00:21:18;6.85;;;6.15;;
66946;SDS011;53853;51.982;5.928;2023-04-24T00:23:54;7.28;;;6.57;;
66946;SDS011;53853;51.982;5.928;2023-04-24T00:26:23;5.63;;;4.65;;
66946;SDS011;53853;51.982;5.928;2023-04-24T00:28:53;4.82;;;4.15;;
66946;SDS011;53853;51.982;5.928;2023-04-24T00:31:23;3.13;;;2.83;;
66946;SDS011;53853;51.982;5.928;2023-04-24T00:33:53;3.72;;;2.88;;
66946;SDS011;53853;51.982;5.928;2023-04-24T00:36:23;3.00;;;2.25;;
66946;SDS011;53853;51.982;5.928;2023-04-24T00:38:55;4.32;;;2.88;;
66946;SDS011;53853;51.982;5.928;2023-04-24T00:41:25;3.35;;;2.42;;
66946;SDS011;53853;51.982;5.928;2023-04-24T00:43:55;2.88;;;2.38;;
66946;SDS011;53853;51.982;5.928;2023-04-24T00:46:25;2.90;;;2.60;;
66946;SDS011;53853;51.982;5.928;2023-04-24T00:48:56;3.30;;;2.20;;
66946;SDS011;53853;51.982;5.928;2023-04-24T00:51:27;2.35;;;1.90;;
66946;SDS011;53853;51.982;5.928;2023-04-24T00:54:01;2.55;;;2.20;;
66946;SDS011;53853;51.982;5.928;2023-04-24T00:56:31;2.33;;;1.83;;
66946;SDS011;53853;51.982;5.928;2023-04-24T00:59:01;2.83;;;2.22;;
66946;SDS011;53853;51.982;5.928;2023-04-24T01:01:31;2.22;;;1.83;;
66946;SDS011;53853;51.982;5.928;2023-04-24T01:04:02;3.35;;;2.63;;
66946;SDS011;53853;51.982;5.928;2023-04-24T01:06:33;5.68;;;5.18;;
66946;SDS011;53853;51.982;5.928;2023-04-24T01:09:06;4.70;;;3.83;;
66946;SDS011;53853;51.982;5.928;2023-04-24T01:11:37;8.68;;;5.00;;
66946;SDS011;53853;51.982;5.928;2023-04-24T01:14:11;7.05;;;6.32;;
66946;SDS011;53853;51.982;5.928;2023-04-24T01:16:41;7.78;;;7.07;;
66946;SDS011;53853;51.982;5.928;2023-04-24T01:19:11;10.43;;;8.63;;
66946;SDS011;53853;51.982;5.928;2023-04-24T01:21:43;12.27;;;10.63;;
66946;SDS011;53853;51.982;5.928;2023-04-24T01:24:20;15.73;;;13.07;;
66946;SDS011;53853;51.982;5.928;2023-04-24T01:26:50;14.30;;;12.45;;
66946;SDS011;53853;51.982;5.928;2023-04-24T01:29:20;16.08;;;14.18;;
66946;SDS011;53853;51.982;5.928;2023-04-24T01:31:51;15.68;;;13.70;;
66946;SDS011;53853;51.982;5.928;2023-04-24T01:34:20;16.73;;;14.10;;
66946;SDS011;53853;51.982;5.928;2023-04-24T01:36:50;15.02;;;13.07;;
66946;SDS011;53853;51.982;5.928;2023-04-24T01:39:24;14.65;;;13.10;;
66946;SDS011;53853;51.982;5.928;2023-04-24T01:41:54;14.98;;;12.73;;
66946;SDS011;53853;51.982;5.928;2023-04-24T01:44:25;18.08;;;16.17;;
66946;SDS011;53853;51.982;5.928;2023-04-24T01:46:56;16.65;;;14.60;;
66946;SDS011;53853;51.982;5.928;2023-04-24T01:49:26;13.63;;;12.23;;
66946;SDS011;53853;51.982;5.928;2023-04-24T01:51:56;16.65;;;14.85;;
66946;SDS011;53853;51.982;5.928;2023-04-24T01:54:32;15.32;;;13.77;;
66946;SDS011;53853;51.982;5.928;2023-04-24T01:57:02;20.15;;;16.33;;
66946;SDS011;53853;51.982;5.928;2023-04-24T01:59:32;15.07;;;11.18;;
66946;SDS011;53853;51.982;5.928;2023-04-24T02:02:03;10.40;;;9.02;;
66946;SDS011;53853;51.982;5.928;2023-04-24T02:04:34;10.07;;;8.95;;
66946;SDS011;53853;51.982;5.928;2023-04-24T02:07:04;12.27;;;9.88;;
66946;SDS011;53853;51.982;5.928;2023-04-24T02:09:37;10.35;;;9.25;;
66946;SDS011;53853;51.982;5.928;2023-04-24T02:12:07;9.65;;;8.38;;
66946;SDS011;53853;51.982;5.928;2023-04-24T02:14:37;12.88;;;11.25;;
66946;SDS011;53853;51.982;5.928;2023-04-24T02:17:09;20.38;;;16.92;;
66946;SDS011;53853;51.982;5.928;2023-04-24T02:19:41;17.80;;;16.10;;
66946;SDS011;53853;51.982;5.928;2023-04-24T02:22:11;15.02;;;13.52;;
66946;SDS011;53853;51.982;5.928;2023-04-24T02:24:44;20.55;;;16.90;;
66946;SDS011;53853;51.982;5.928;2023-04-24T02:27:15;19.25;;;17.27;;
66946;SDS011;53853;51.982;5.928;2023-04-24T02:29:45;16.63;;;14.82;;
66946;SDS011;53853;51.982;5.928;2023-04-24T02:32:15;20.80;;;18.60;;
66946;SDS011;53853;51.982;5.928;2023-04-24T02:34:44;19.45;;;17.45;;
66946;SDS011;53853;51.982;5.928;2023-04-24T02:37:14;24.50;;;20.25;;
66946;SDS011;53853;51.982;5.928;2023-04-24T02:39:47;21.95;;;19.65;;
66946;SDS011;53853;51.982;5.928;2023-04-24T02:42:17;21.65;;;19.33;;
66946;SDS011;53853;51.982;5.928;2023-04-24T02:44:46;24.58;;;20.42;;
66946;SDS011;53853;51.982;5.928;2023-04-24T02:47:17;22.08;;;19.58;;
66946;SDS011;53853;51.982;5.928;2023-04-24T02:49:48;21.80;;;19.48;;
66946;SDS011;53853;51.982;5.928;2023-04-24T02:52:18;22.77;;;20.05;;
66946;SDS011;53853;51.982;5.928;2023-04-24T02:54:51;20.05;;;17.88;;
66946;SDS011;53853;51.982;5.928;2023-04-24T02:57:21;19.23;;;16.50;;
66946;SDS011;53853;51.982;5.928;2023-04-24T02:59:51;19.50;;;17.40;;
66946;SDS011;53853;51.982;5.928;2023-04-24T03:02:21;16.90;;;15.13;;
66946;SDS011;53853;51.982;5.928;2023-04-24T03:04:51;18.02;;;16.00;;
66946;SDS011;53853;51.982;5.928;2023-04-24T03:07:20;18.45;;;16.45;;
66946;SDS011;53853;51.982;5.928;2023-04-24T03:09:53;15.40;;;13.88;;
66946;SDS011;53853;51.982;5.928;2023-04-24T03:12:23;18.47;;;16.57;;
66946;SDS011;53853;51.982;5.928;2023-04-24T03:14:54;16.63;;;14.88;;
66946;SDS011;53853;51.982;5.928;2023-04-24T03:17:24;22.55;;;17.88;;
66946;SDS011;53853;51.982;5.928;2023-04-24T03:19:54;15.45;;;13.45;;
66946;SDS011;53853;51.982;5.928;2023-04-24T03:22:24;16.75;;;15.05;;
66946;SDS011;53853;51.982;5.928;2023-04-24T03:24:57;18.08;;;15.23;;
66946;SDS011;53853;51.982;5.928;2023-04-24T03:27:27;15.15;;;13.52;;
66946;SDS011;53853;51.982;5.928;2023-04-24T03:30:02;16.17;;;14.32;;
66946;SDS011;53853;51.982;5.928;2023-04-24T03:32:41;16.77;;;14.88;;
66946;SDS011;53853;51.982;5.928;2023-04-24T03:35:14;16.48;;;14.85;;
66946;SDS011;53853;51.982;5.928;2023-04-24T03:37:43;14.30;;;12.93;;
66946;SDS011;53853;51.982;5.928;2023-04-24T03:40:35;19.13;;;16.15;;
66946;SDS011;53853;51.982;5.928;2023-04-24T03:43:14;15.98;;;13.32;;
66946;SDS011;53853;51.982;5.928;2023-04-24T03:45:45;21.27;;;18.17;;
66946;SDS011;53853;51.982;5.928;2023-04-24T03:48:16;23.67;;;21.08;;
66946;SDS011;53853;51.982;5.928;2023-04-24T03:50:47;24.55;;;19.80;;
66946;SDS011;53853;51.982;5.928;2023-04-24T03:53:17;24.70;;;22.10;;
66946;SDS011;53853;51.982;5.928;2023-04-24T03:55:51;21.38;;;19.05;;
66946;SDS011;53853;51.982;5.928;2023-04-24T03:58:21;27.48;;;24.40;;
66946;SDS011;53853;51.982;5.928;2023-04-24T04:00:53;25.45;;;22.70;;
66946;SDS011;53853;51.982;5.928;2023-04-24T04:03:45;28.58;;;25.58;;
66946;SDS011;53853;51.982;5.928;2023-04-24T04:06:19;25.75;;;22.95;;
66946;SDS011;53853;51.982;5.928;2023-04-24T04:08:51;27.48;;;24.65;;
66946;SDS011;53853;51.982;5.928;2023-04-24T04:11:23;28.00;;;24.98;;
66946;SDS011;53853;51.982;5.928;2023-04-24T04:13:53;29.83;;;25.98;;
66946;SDS011;53853;51.982;5.928;2023-04-24T04:16:24;30.90;;;25.83;;
66946;SDS011;53853;51.982;5.928;2023-04-24T04:19:00;23.75;;;21.30;;
66946;SDS011;53853;51.982;5.928;2023-04-24T04:21:31;32.03;;;25.10;;
66946;SDS011;53853;51.982;5.928;2023-04-24T04:24:13;28.15;;;25.23;;
66946;SDS011;53853;51.982;5.928;2023-04-24T04:26:47;24.27;;;21.63;;
66946;SDS011;53853;51.982;5.928;2023-04-24T04:29:40;20.63;;;18.55;;
66946;SDS011;53853;51.982;5.928;2023-04-24T04:32:12;27.45;;;24.55;;
66946;SDS011;53853;51.982;5.928;2023-04-24T04:34:42;27.45;;;24.65;;
66946;SDS011;53853;51.982;5.928;2023-04-24T04:37:15;24.17;;;21.52;;
66946;SDS011;53853;51.982;5.928;2023-04-24T04:40:04;25.38;;;22.77;;
66946;SDS011;53853;51.982;5.928;2023-04-24T04:42:45;21.13;;;19.13;;
66946;SDS011;53853;51.982;5.928;2023-04-24T04:45:19;22.20;;;19.85;;
66946;SDS011;53853;51.982;5.928;2023-04-24T04:48:10;17.63;;;15.82;;
66946;SDS011;53853;51.982;5.928;2023-04-24T04:50:43;19.15;;;17.00;;
66946;SDS011;53853;51.982;5.928;2023-04-24T04:53:14;23.73;;;18.95;;
66946;SDS011;53853;51.982;5.928;2023-04-24T04:55:43;24.00;;;19.70;;
66946;SDS011;53853;51.982;5.928;2023-04-24T04:58:18;21.73;;;19.33;;
66946;SDS011;53853;51.982;5.928;2023-04-24T05:00:52;24.63;;;20.55;;
66946;SDS011;53853;51.982;5.928;2023-04-24T05:03:33;23.92;;;20.90;;
66946;SDS011;53853;51.982;5.928;2023-04-24T05:06:06;17.33;;;15.45;;
66946;SDS011;53853;51.982;5.928;2023-04-24T05:08:40;15.65;;;13.93;;
66946;SDS011;53853;51.982;5.928;2023-04-24T05:11:30;18.60;;;16.67;;
66946;SDS011;53853;51.982;5.928;2023-04-24T05:14:04;21.95;;;19.23;;
66946;SDS011;53853;51.982;5.928;2023-04-24T05:16:36;20.52;;;16.83;;
66946;SDS011;53853;51.982;5.928;2023-04-24T05:19:08;19.20;;;17.20;;
66946;SDS011;53853;51.982;5.928;2023-04-24T05:21:40;15.65;;;14.15;;
66946;SDS011;53853;51.982;5.928;2023-04-24T05:24:11;23.98;;;19.77;;
66946;SDS011;53853;51.982;5.928;2023-04-24T05:26:43;20.60;;;17.65;;
66946;SDS011;53853;51.982;5.928;2023-04-24T05:29:19;18.55;;;15.25;;
66946;SDS011;53853;51.982;5.928;2023-04-24T05:31:49;18.67;;;16.73;;
66946;SDS011;53853;51.982;5.928;2023-04-24T05:34:19;17.63;;;15.85;;
66946;SDS011;53853;51.982;5.928;2023-04-24T05:36:53;18.58;;;16.63;;
66946;SDS011;53853;51.982;5.928;2023-04-24T05:39:23;15.43;;;12.45;;
66946;SDS011;53853;51.982;5.928;2023-04-24T05:41:54;13.15;;;10.98;;
66946;SDS011;53853;51.982;5.928;2023-04-24T05:44:27;14.35;;;13.05;;
66946;SDS011;53853;51.982;5.928;2023-04-24T05:46:58;17.80;;;15.65;;
66946;SDS011;53853;51.982;5.928;2023-04-24T05:49:28;17.33;;;15.13;;
66946;SDS011;53853;51.982;5.928;2023-04-24T05:51:58;13.73;;;12.05;;
66946;SDS011;53853;51.982;5.928;2023-04-24T05:54:30;16.58;;;14.48;;
66946;SDS011;53853;51.982;5.928;2023-04-24T05:56:59;10.70;;;9.70;;
66946;SDS011;53853;51.982;5.928;2023-04-24T05:59:48;13.82;;;11.10;;
66946;SDS011;53853;51.982;5.928;2023-04-24T06:04:50;13.20;;;11.80;;
66946;SDS011;53853;51.982;5.928;2023-04-24T06:07:19;11.52;;;10.32;;
66946;SDS011;53853;51.982;5.928;2023-04-24T06:09:49;12.02;;;10.82;;
66946;SDS011;53853;51.982;5.928;2023-04-24T06:12:19;12.73;;;11.35;;
66946;SDS011;53853;51.982;5.928;2023-04-24T06:14:58;12.63;;;10.43;;
66946;SDS011;53853;51.982;5.928;2023-04-24T06:17:51;14.77;;;10.60;;
66946;SDS011;53853;51.982;5.928;2023-04-24T06:20:21;10.15;;;9.15;;
66946;SDS011;53853;51.982;5.928;2023-04-24T06:22:51;10.70;;;8.77;;
66946;SDS011;53853;51.982;5.928;2023-04-24T06:25:21;10.55;;;9.45;;
66946;SDS011;53853;51.982;5.928;2023-04-24T06:27:53;9.07;;;7.97;;
66946;SDS011;53853;51.982;5.928;2023-04-24T06:30:25;9.55;;;7.30;;
66946;SDS011;53853;51.982;5.928;2023-04-24T06:32:55;12.00;;;10.43;;
66946;SDS011;53853;51.982;5.928;2023-04-24T06:35:25;8.80;;;7.90;;
66946;SDS011;53853;51.982;5.928;2023-04-24T06:37:55;10.48;;;8.75;;
66946;SDS011;53853;51.982;5.928;2023-04-24T06:40:25;9.77;;;8.77;;
66946;SDS011;53853;51.982;5.928;2023-04-24T06:42:55;9.35;;;7.30;;
66946;SDS011;53853;51.982;5.928;2023-04-24T06:45:31;9.25;;;7.60;;
66946;SDS011;53853;51.982;5.928;2023-04-24T06:48:01;9.20;;;7.38;;
66946;SDS011;53853;51.982;5.928;2023-04-24T06:50:31;10.27;;;8.85;;
66946;SDS011;53853;51.982;5.928;2023-04-24T06:53:01;7.50;;;6.45;;
66946;SDS011;53853;51.982;5.928;2023-04-24T06:55:31;8.07;;;6.50;;
66946;SDS011;53853;51.982;5.928;2023-04-24T06:58:01;8.60;;;7.70;;
66946;SDS011;53853;51.982;5.928;2023-04-24T07:00:34;7.28;;;6.13;;
66946;SDS011;53853;51.982;5.928;2023-04-24T07:03:04;7.68;;;6.07;;
66946;SDS011;53853;51.982;5.928;2023-04-24T07:05:34;7.82;;;6.28;;
66946;SDS011;53853;51.982;5.928;2023-04-24T07:08:04;4.90;;;4.40;;
66946;SDS011;53853;51.982;5.928;2023-04-24T07:10:37;7.17;;;5.53;;
66946;SDS011;53853;51.982;5.928;2023-04-24T07:13:07;4.70;;;3.90;;
66946;SDS011;53853;51.982;5.928;2023-04-24T07:15:39;5.07;;;4.35;;
66946;SDS011;53853;51.982;5.928;2023-04-24T07:18:09;4.35;;;3.53;;
66946;SDS011;53853;51.982;5.928;2023-04-24T07:20:39;4.50;;;3.42;;
66946;SDS011;53853;51.982;5.928;2023-04-24T07:23:09;5.50;;;3.28;;
66946;SDS011;53853;51.982;5.928;2023-04-24T07:25:39;4.50;;;3.33;;
66946;SDS011;53853;51.982;5.928;2023-04-24T07:28:09;3.15;;;2.65;;
66946;SDS011;53853;51.982;5.928;2023-04-24T07:30:42;8.50;;;3.28;;
66946;SDS011;53853;51.982;5.928;2023-04-24T07:33:12;3.50;;;2.72;;
66946;SDS011;53853;51.982;5.928;2023-04-24T07:35:42;3.35;;;2.20;;
66946;SDS011;53853;51.982;5.928;2023-04-24T07:38:12;2.22;;;1.60;;
66946;SDS011;53853;51.982;5.928;2023-04-24T07:40:42;3.60;;;1.75;;
66946;SDS011;53853;51.982;5.928;2023-04-24T07:43:12;3.55;;;2.13;;
66946;SDS011;53853;51.982;5.928;2023-04-24T07:45:44;3.03;;;1.90;;
66946;SDS011;53853;51.982;5.928;2023-04-24T07:48:14;6.35;;;2.30;;
66946;SDS011;53853;51.982;5.928;2023-04-24T07:50:44;5.53;;;3.58;;
66946;SDS011;53853;51.982;5.928;2023-04-24T07:53:14;7.18;;;4.00;;
66946;SDS011;53853;51.982;5.928;2023-04-24T07:55:44;5.82;;;4.22;;
66946;SDS011;53853;51.982;5.928;2023-04-24T07:58:14;5.88;;;4.20;;
66946;SDS011;53853;51.982;5.928;2023-04-24T08:00:46;7.50;;;5.78;;
66946;SDS011;53853;51.982;5.928;2023-04-24T08:03:16;8.63;;;6.43;;
66946;SDS011;53853;51.982;5.928;2023-04-24T08:05:46;10.15;;;6.80;;
66946;SDS011;53853;51.982;5.928;2023-04-24T08:08:16;9.93;;;6.32;;
66946;SDS011;53853;51.982;5.928;2023-04-24T08:10:48;9.82;;;6.65;;
66946;SDS011;53853;51.982;5.928;2023-04-24T08:13:18;10.35;;;6.35;;
66946;SDS011;53853;51.982;5.928;2023-04-24T08:15:51;11.63;;;7.25;;
66946;SDS011;53853;51.982;5.928;2023-04-24T08:18:21;9.38;;;6.28;;
66946;SDS011;53853;51.982;5.928;2023-04-24T08:20:52;9.57;;;6.95;;
66946;SDS011;53853;51.982;5.928;2023-04-24T08:23:21;11.02;;;8.73;;
66946;SDS011;53853;51.982;5.928;2023-04-24T08:25:51;11.85;;;7.55;;
66946;SDS011;53853;51.982;5.928;2023-04-24T08:28:21;10.40;;;6.65;;
66946;SDS011;53853;51.982;5.928;2023-04-24T08:30:54;10.40;;;8.27;;
66946;SDS011;53853;51.982;5.928;2023-04-24T08:33:24;13.40;;;8.38;;
66946;SDS011;53853;51.982;5.928;2023-04-24T08:35:59;10.27;;;8.00;;
66946;SDS011;53853;51.982;5.928;2023-04-24T08:38:30;9.00;;;7.95;;
66946;SDS011;53853;51.982;5.928;2023-04-24T08:41:00;11.50;;;8.10;;
66946;SDS011;53853;51.982;5.928;2023-04-24T08:43:31;10.35;;;7.57;;
66946;SDS011;53853;51.982;5.928;2023-04-24T08:46:06;11.32;;;8.77;;
66946;SDS011;53853;51.982;5.928;2023-04-24T08:48:36;9.98;;;7.25;;
66946;SDS011;53853;51.982;5.928;2023-04-24T08:51:06;9.88;;;8.30;;
66946;SDS011;53853;51.982;5.928;2023-04-24T08:53:37;13.93;;;9.00;;
66946;SDS011;53853;51.982;5.928;2023-04-24T08:56:10;13.77;;;9.07;;
66946;SDS011;53853;51.982;5.928;2023-04-24T08:58:41;14.85;;;9.80;;
66946;SDS011;53853;51.982;5.928;2023-04-24T09:01:15;13.98;;;8.90;;
66946;SDS011;53853;51.982;5.928;2023-04-24T09:03:45;14.10;;;8.65;;
66946;SDS011;53853;51.982;5.928;2023-04-24T09:06:17;10.30;;;6.68;;
66946;SDS011;53853;51.982;5.928;2023-04-24T09:08:47;11.52;;;6.00;;
66946;SDS011;53853;51.982;5.928;2023-04-24T09:11:21;8.90;;;5.32;;
66946;SDS011;53853;51.982;5.928;2023-04-24T09:13:53;7.68;;;5.20;;
66946;SDS011;53853;51.982;5.928;2023-04-24T09:16:26;10.55;;;6.45;;
66946;SDS011;53853;51.982;5.928;2023-04-24T09:18:56;10.18;;;4.57;;
66946;SDS011;53853;51.982;5.928;2023-04-24T09:21:30;9.45;;;4.75;;
66946;SDS011;53853;51.982;5.928;2023-04-24T09:24:01;13.55;;;5.57;;
66946;SDS011;53853;51.982;5.928;2023-04-24T09:26:35;10.85;;;5.63;;
66946;SDS011;53853;51.982;5.928;2023-04-24T09:29:05;16.92;;;6.72;;
66946;SDS011;53853;51.982;5.928;2023-04-24T09:31:38;14.52;;;4.70;;
66946;SDS011;53853;51.982;5.928;2023-04-24T09:34:08;8.02;;;4.25;;
66946;SDS011;53853;51.982;5.928;2023-04-24T09:36:39;8.32;;;3.85;;
66946;SDS011;53853;51.982;5.928;2023-04-24T09:39:11;19.63;;;5.55;;
66946;SDS011;53853;51.982;5.928;2023-04-24T09:41:45;8.55;;;3.70;;
66946;SDS011;53853;51.982;5.928;2023-04-24T09:44:16;9.25;;;3.80;;
66946;SDS011;53853;51.982;5.928;2023-04-24T09:46:52;8.32;;;3.50;;
66946;SDS011;53853;51.982;5.928;2023-04-24T09:49:23;10.88;;;4.07;;
66946;SDS011;53853;51.982;5.928;2023-04-24T09:52:02;12.35;;;3.95;;
66946;SDS011;53853;51.982;5.928;2023-04-24T09:54:33;10.38;;;4.35;;
66946;SDS011;53853;51.982;5.928;2023-04-24T09:57:03;10.13;;;3.30;;
66946;SDS011;53853;51.982;5.928;2023-04-24T09:59:35;13.20;;;3.92;;
66946;SDS011;53853;51.982;5.928;2023-04-24T10:02:19;11.10;;;3.92;;
66946;SDS011;53853;51.982;5.928;2023-04-24T10:04:53;7.55;;;3.00;;
66946;SDS011;53853;51.982;5.928;2023-04-24T10:07:25;12.02;;;3.63;;
66946;SDS011;53853;51.982;5.928;2023-04-24T10:09:55;9.73;;;3.90;;
66946;SDS011;53853;51.982;5.928;2023-04-24T10:12:26;13.25;;;3.15;;
66946;SDS011;53853;51.982;5.928;2023-04-24T10:14:56;9.88;;;4.03;;
66946;SDS011;53853;51.982;5.928;2023-04-24T10:17:30;8.20;;;3.38;;
66946;SDS011;53853;51.982;5.928;2023-04-24T10:20:01;11.20;;;3.85;;
66946;SDS011;53853;51.982;5.928;2023-04-24T10:22:32;10.70;;;3.45;;
66946;SDS011;53853;51.982;5.928;2023-04-24T10:25:03;14.05;;;4.28;;
66946;SDS011;53853;51.982;5.928;2023-04-24T10:27:34;12.13;;;4.07;;
66946;SDS011;53853;51.982;5.928;2023-04-24T10:30:07;10.43;;;3.78;;
66946;SDS011;53853;51.982;5.928;2023-04-24T10:32:42;12.70;;;4.78;;
66946;SDS011;53853;51.982;5.928;2023-04-24T10:35:13;10.82;;;4.32;;
66946;SDS011;53853;51.982;5.928;2023-04-24T10:37:45;9.48;;;3.35;;
66946;SDS011;53853;51.982;5.928;2023-04-24T10:40:18;9.45;;;3.97;;
66946;SDS011;53853;51.982;5.928;2023-04-24T10:42:53;9.93;;;4.53;;
66946;SDS011;53853;51.982;5.928;2023-04-24T10:45:27;14.40;;;4.50;;
66946;SDS011;53853;51.982;5.928;2023-04-24T10:48:01;8.35;;;3.50;;
66946;SDS011;53853;51.982;5.928;2023-04-24T10:50:43;7.53;;;3.03;;
66946;SDS011;53853;51.982;5.928;2023-04-24T10:53:14;7.45;;;3.33;;
66946;SDS011;53853;51.982;5.928;2023-04-24T10:55:46;7.45;;;2.72;;
66946;SDS011;53853;51.982;5.928;2023-04-24T10:58:21;5.43;;;2.33;;
66946;SDS011;53853;51.982;5.928;2023-04-24T11:00:56;10.00;;;3.22;;
66946;SDS011;53853;51.982;5.928;2023-04-24T11:03:30;6.32;;;2.60;;
66946;SDS011;53853;51.982;5.928;2023-04-24T11:06:02;7.68;;;2.83;;
66946;SDS011;53853;51.982;5.928;2023-04-24T11:08:37;8.40;;;3.47;;
66946;SDS011;53853;51.982;5.928;2023-04-24T11:11:10;6.72;;;2.65;;
66946;SDS011;53853;51.982;5.928;2023-04-24T11:16:32;9.20;;;4.07;;
66946;SDS011;53853;51.982;5.928;2023-04-24T11:19:07;5.53;;;2.47;;
66946;SDS011;53853;51.982;5.928;2023-04-24T11:21:39;8.20;;;2.30;;
66946;SDS011;53853;51.982;5.928;2023-04-24T11:24:23;4.80;;;1.83;;
66946;SDS011;53853;51.982;5.928;2023-04-24T11:26:55;7.43;;;2.45;;
66946;SDS011;53853;51.982;5.928;2023-04-24T11:29:43;5.68;;;2.63;;
66946;SDS011;53853;51.982;5.928;2023-04-24T11:32:22;8.95;;;1.98;;
66946;SDS011;53853;51.982;5.928;2023-04-24T11:34:56;4.22;;;1.77;;
66946;SDS011;53853;51.982;5.928;2023-04-24T11:37:28;6.25;;;1.95;;
66946;SDS011;53853;51.982;5.928;2023-04-24T11:40:02;7.32;;;2.17;;
66946;SDS011;53853;51.982;5.928;2023-04-24T11:42:34;6.55;;;2.33;;
66946;SDS011;53853;51.982;5.928;2023-04-24T11:45:07;5.25;;;1.83;;
66946;SDS011;53853;51.982;5.928;2023-04-24T11:47:38;5.60;;;1.70;;
66946;SDS011;53853;51.982;5.928;2023-04-24T11:50:13;5.50;;;1.70;;
66946;SDS011;53853;51.982;5.928;2023-04-24T11:52:44;3.50;;;1.20;;
66946;SDS011;53853;51.982;5.928;2023-04-24T11:55:25;2.35;;;1.55;;
66946;SDS011;53853;51.982;5.928;2023-04-24T11:57:57;3.13;;;1.20;;
66946;SDS011;53853;51.982;5.928;2023-04-24T12:00:28;3.42;;;1.42;;
66946;SDS011;53853;51.982;5.928;2023-04-24T12:03:03;3.75;;;1.65;;
66946;SDS011;53853;51.982;5.928;2023-04-24T12:05:37;4.72;;;1.85;;
66946;SDS011;53853;51.982;5.928;2023-04-24T12:08:09;2.90;;;1.88;;
66946;SDS011;53853;51.982;5.928;2023-04-24T12:10:39;3.60;;;1.55;;
66946;SDS011;53853;51.982;5.928;2023-04-24T12:13:09;3.90;;;1.50;;
66946;SDS011;53853;51.982;5.928;2023-04-24T12:15:39;4.10;;;1.85;;
66946;SDS011;53853;51.982;5.928;2023-04-24T12:18:11;3.17;;;1.63;;
66946;SDS011;53853;51.982;5.928;2023-04-24T12:20:45;4.50;;;1.60;;
66946;SDS011;53853;51.982;5.928;2023-04-24T12:23:15;4.25;;;1.42;;
66946;SDS011;53853;51.982;5.928;2023-04-24T12:25:45;4.70;;;1.80;;
66946;SDS011;53853;51.982;5.928;2023-04-24T12:28:15;4.65;;;1.52;;
66946;SDS011;53853;51.982;5.928;2023-04-24T12:30:46;3.60;;;2.10;;
66946;SDS011;53853;51.982;5.928;2023-04-24T12:33:17;4.80;;;1.55;;
66946;SDS011;53853;51.982;5.928;2023-04-24T12:35:51;4.68;;;2.60;;
66946;SDS011;53853;51.982;5.928;2023-04-24T12:38:21;4.43;;;1.75;;
66946;SDS011;53853;51.982;5.928;2023-04-24T12:41:01;4.93;;;2.20;;
66946;SDS011;53853;51.982;5.928;2023-04-24T12:43:32;3.22;;;1.25;;
66946;SDS011;53853;51.982;5.928;2023-04-24T12:46:03;3.85;;;1.30;;
66946;SDS011;53853;51.982;5.928;2023-04-24T12:48:33;5.85;;;1.40;;
66946;SDS011;53853;51.982;5.928;2023-04-24T12:51:05;3.08;;;1.30;;
66946;SDS011;53853;51.982;5.928;2023-04-24T12:56:06;3.88;;;1.48;;
66946;SDS011;53853;51.982;5.928;2023-04-24T12:58:36;4.03;;;1.30;;
66946;SDS011;53853;51.982;5.928;2023-04-24T13:01:06;4.57;;;1.33;;
66946;SDS011;53853;51.982;5.928;2023-04-24T13:03:36;7.40;;;1.90;;
66946;SDS011;53853;51.982;5.928;2023-04-24T13:06:08;6.60;;;1.77;;
66946;SDS011;53853;51.982;5.928;2023-04-24T13:08:38;3.58;;;1.45;;
66946;SDS011;53853;51.982;5.928;2023-04-24T13:11:08;5.50;;;1.88;;
66946;SDS011;53853;51.982;5.928;2023-04-24T13:13:38;4.63;;;1.77;;
66946;SDS011;53853;51.982;5.928;2023-04-24T13:16:08;4.47;;;1.63;;
66946;SDS011;53853;51.982;5.928;2023-04-24T13:18:38;4.40;;;1.30;;
66946;SDS011;53853;51.982;5.928;2023-04-24T13:21:10;2.42;;;1.30;;
66946;SDS011;53853;51.982;5.928;2023-04-24T13:23:40;5.00;;;1.50;;
66946;SDS011;53853;51.982;5.928;2023-04-24T13:26:10;3.88;;;1.55;;
66946;SDS011;53853;51.982;5.928;2023-04-24T13:28:40;8.10;;;2.45;;
66946;SDS011;53853;51.982;5.928;2023-04-24T13:31:10;7.22;;;1.80;;
66946;SDS011;53853;51.982;5.928;2023-04-24T13:33:40;5.47;;;1.85;;
66946;SDS011;53853;51.982;5.928;2023-04-24T13:36:13;5.05;;;1.80;;
66946;SDS011;53853;51.982;5.928;2023-04-24T13:38:43;7.78;;;2.10;;
66946;SDS011;53853;51.982;5.928;2023-04-24T13:41:13;7.00;;;1.90;;
66946;SDS011;53853;51.982;5.928;2023-04-24T13:43:43;7.25;;;2.10;;
66946;SDS011;53853;51.982;5.928;2023-04-24T13:46:12;7.57;;;2.80;;
66946;SDS011;53853;51.982;5.928;2023-04-24T13:48:42;5.70;;;2.53;;
66946;SDS011;53853;51.982;5.928;2023-04-24T13:51:15;9.70;;;2.58;;
66946;SDS011;53853;51.982;5.928;2023-04-24T13:53:45;7.55;;;2.70;;
66946;SDS011;53853;51.982;5.928;2023-04-24T13:56:15;11.60;;;8.20;;
66946;SDS011;53853;51.982;5.928;2023-04-24T13:58:44;10.00;;;3.15;;
66946;SDS011;53853;51.982;5.928;2023-04-24T14:01:15;7.95;;;2.35;;
66946;SDS011;53853;51.982;5.928;2023-04-24T14:03:44;7.95;;;2.40;;
66946;SDS011;53853;51.982;5.928;2023-04-24T14:06:17;7.85;;;2.45;;
66946;SDS011;53853;51.982;5.928;2023-04-24T14:08:47;6.85;;;2.33;;
66946;SDS011;53853;51.982;5.928;2023-04-24T14:11:17;6.22;;;2.45;;
66946;SDS011;53853;51.982;5.928;2023-04-24T14:13:48;3.90;;;1.88;;
66946;SDS011;53853;51.982;5.928;2023-04-24T14:16:18;8.30;;;2.83;;
66946;SDS011;53853;51.982;5.928;2023-04-24T14:18:48;9.75;;;2.55;;
66946;SDS011;53853;51.982;5.928;2023-04-24T14:21:20;8.07;;;2.40;;
66946;SDS011;53853;51.982;5.928;2023-04-24T14:23:50;6.20;;;2.42;;
66946;SDS011;53853;51.982;5.928;2023-04-24T14:26:20;7.90;;;2.75;;
66946;SDS011;53853;51.982;5.928;2023-04-24T14:28:50;8.63;;;3.05;;
66946;SDS011;53853;51.982;5.928;2023-04-24T14:31:21;9.93;;;2.80;;
66946;SDS011;53853;51.982;5.928;2023-04-24T14:33:51;9.05;;;2.55;;
66946;SDS011;53853;51.982;5.928;2023-04-24T14:36:23;10.20;;;3.03;;
66946;SDS011;53853;51.982;5.928;2023-04-24T14:38:53;8.02;;;2.40;;
66946;SDS011;53853;51.982;5.928;2023-04-24T14:41:23;8.35;;;2.88;;
66946;SDS011;53853;51.982;5.928;2023-04-24T14:43:53;8.05;;;2.72;;
66946;SDS011;53853;51.982;5.928;2023-04-24T14:46:23;9.43;;;3.05;;
66946;SDS011;53853;51.982;5.928;2023-04-24T14:48:53;7.88;;;2.60;;
66946;SDS011;53853;51.982;5.928;2023-04-24T14:51:26;8.57;;;3.22;;
66946;SDS011;53853;51.982;5.928;2023-04-24T14:53:56;10.47;;;3.63;;
66946;SDS011;53853;51.982;5.928;2023-04-24T14:56:26;15.55;;;3.20;;
66946;SDS011;53853;51.982;5.928;2023-04-24T14:58:56;9.95;;;2.80;;
66946;SDS011;53853;51.982;5.928;2023-04-24T15:01:26;7.38;;;2.92;;
66946;SDS011;53853;51.982;5.928;2023-04-24T15:03:56;6.80;;;3.42;;
66946;SDS011;53853;51.982;5.928;2023-04-24T15:06:29;6.05;;;2.67;;
66946;SDS011;53853;51.982;5.928;2023-04-24T15:09:00;9.65;;;3.50;;
66946;SDS011;53853;51.982;5.928;2023-04-24T15:11:29;7.30;;;2.67;;
66946;SDS011;53853;51.982;5.928;2023-04-24T15:14:00;9.23;;;3.45;;